Time;durP1;ratioP1;P1;durP2;ratioP2;P2;SDS_P1;SDS_P2;PMS_P1;PMS_P2;Temp;Humidity;BMP_temperature;BMP_pressure;BME280_temperature;BME280_humidity;BME280_pressure;Samples;Min_cycle;Max_cycle;Signal;HPM_P1;HPM_P2
2022/10/30 00:00:14;;;;;;;20.90;8.02;;;14.20;99.90;;;;;;5115098;27;20413;-67
2022/10/30 00:02:40;;;;;;;12.95;7.65;;;14.20;99.90;;;;;;5115275;27;20050;-67
2022/10/30 00:05:06;;;;;;;17.65;8.50;;;14.20;99.90;;;;;;5108807;28;20039;-67
2022/10/30 00:07:32;;;;;;;14.00;7.78;;;14.20;99.90;;;;;;5101121;28;20186;-67
2022/10/30 00:09:58;;;;;;;13.52;8.07;;;14.20;99.90;;;;;;5089259;28;20032;-68
2022/10/30 00:12:24;;;;;;;15.10;8.05;;;14.20;99.90;;;;;;5072905;28;20051;-67
2022/10/30 00:14:49;;;;;;;10.32;7.63;;;14.10;99.90;;;;;;5090979;28;20051;-67
2022/10/30 00:17:15;;;;;;;14.73;7.82;;;14.10;99.90;;;;;;5090757;28;20047;-67
2022/10/30 00:19:41;;;;;;;18.20;8.82;;;14.10;99.90;;;;;;5089088;28;20105;-67
2022/10/30 00:22:06;;;;;;;16.58;8.48;;;14.00;99.90;;;;;;5073891;28;20051;-67
2022/10/30 00:24:32;;;;;;;15.20;7.85;;;14.00;99.90;;;;;;5088312;28;20043;-67
2022/10/30 00:26:57;;;;;;;14.68;7.93;;;14.00;99.90;;;;;;5091044;28;20044;-67
2022/10/30 00:29:25;;;;;;;13.40;8.02;;;13.90;99.90;;;;;;5090491;28;20028;-67
2022/10/30 00:31:51;;;;;;;18.65;8.57;;;13.90;99.90;;;;;;5088670;28;20475;-67
2022/10/30 00:34:17;;;;;;;18.98;8.65;;;13.80;99.90;;;;;;5104799;28;20482;-67
2022/10/30 00:36:42;;;;;;;13.82;8.27;;;13.80;99.90;;;;;;5089994;28;20067;-66
2022/10/30 00:39:08;;;;;;;15.98;9.25;;;13.80;99.90;;;;;;5091156;28;20040;-66
2022/10/30 00:41:33;;;;;;;17.92;10.38;;;13.70;99.90;;;;;;5090386;28;20040;-67
2022/10/30 00:43:59;;;;;;;18.77;10.93;;;13.70;99.90;;;;;;5073899;28;20586;-66
2022/10/30 00:46:31;;;;;;;16.70;10.73;;;13.70;99.90;;;;;;5091718;28;20032;-67
2022/10/30 00:49:04;;;;;;;;;;;13.60;99.90;;;;;;5091144;28;20089;-67
2022/10/30 00:51:32;;;;;;;15.82;8.40;;;13.60;99.90;;;;;;5089240;28;20023;-67
2022/10/30 00:54:01;;;;;;;17.58;9.50;;;13.50;99.90;;;;;;5090314;28;20072;-67
2022/10/30 00:56:28;;;;;;;20.27;8.70;;;13.50;99.90;;;;;;5090425;28;20042;-66
2022/10/30 00:58:59;;;;;;;13.23;8.90;;;13.40;99.90;;;;;;5072992;28;20101;-67
2022/10/30 01:01:28;;;;;;;18.07;8.77;;;13.50;99.90;;;;;;5090353;28;20044;-66
2022/10/30 01:03:56;;;;;;;16.50;9.43;;;13.40;99.90;;;;;;5089939;28;20333;-66
2022/10/30 01:06:23;;;;;;;16.35;8.70;;;13.40;99.90;;;;;;5100761;28;20070;-66
2022/10/30 01:08:50;;;;;;;17.90;10.43;;;13.40;99.90;;;;;;5110326;28;20228;-66
2022/10/30 01:11:16;;;;;;;19.60;10.25;;;13.30;99.90;;;;;;5110581;28;20040;-67
2022/10/30 01:13:45;;;;;;;23.70;10.10;;;13.30;99.90;;;;;;5110010;28;20051;-67
2022/10/30 01:16:11;;;;;;;20.60;10.13;;;13.30;99.90;;;;;;5110733;28;20051;-67
2022/10/30 01:19:13;;;;;;;19.92;9.93;;;13.30;99.90;;;;;;5093527;28;20204;-67
2022/10/30 01:21:49;;;;;;;20.80;8.95;;;13.30;99.90;;;;;;5110683;28;20084;-66
2022/10/30 01:24:35;;;;;;;15.88;8.73;;;13.30;99.90;;;;;;5109808;28;20039;-68
2022/10/30 01:27:06;;;;;;;16.95;8.88;;;13.30;99.90;;;;;;5051491;28;20045;-66
2022/10/30 01:29:53;;;;;;;17.00;8.68;;;13.30;99.90;;;;;;5051983;28;20048;-67
2022/10/30 01:32:37;;;;;;;18.80;9.38;;;13.40;99.90;;;;;;5051679;28;20041;-66
2022/10/30 01:35:15;;;;;;;15.68;9.00;;;13.30;99.90;;;;;;5034909;28;20487;-67
2022/10/30 01:37:46;;;;;;;16.63;8.38;;;13.40;99.90;;;;;;5051844;28;20425;-66
2022/10/30 01:40:16;;;;;;;18.88;9.18;;;13.40;99.90;;;;;;5051535;28;20474;-66
2022/10/30 01:42:53;;;;;;;15.48;8.65;;;13.40;99.90;;;;;;5051572;28;20058;-66
2022/10/30 01:45:28;;;;;;;17.35;8.52;;;13.40;99.90;;;;;;5050373;28;20174;-66
2022/10/30 01:48:13;;;;;;;15.57;9.35;;;13.40;99.90;;;;;;5051652;28;20483;-66
2022/10/30 01:50:55;;;;;;;17.88;9.23;;;13.40;99.90;;;;;;5051759;28;20137;-67
2022/10/30 01:53:50;;;;;;;18.20;8.95;;;13.40;99.90;;;;;;5051421;28;20070;-67
2022/10/30 01:56:18;;;;;;;16.02;9.32;;;13.40;99.90;;;;;;5065524;28;20048;-67
2022/10/30 01:59:07;;;;;;;16.08;8.77;;;13.40;99.90;;;;;;5050729;28;20048;-67
2022/10/30 02:01:35;;;;;;;20.42;9.48;;;13.40;99.90;;;;;;5050831;28;20045;-66
2022/10/30 02:04:02;;;;;;;17.17;9.02;;;13.40;99.90;;;;;;5075210;28;20145;-68
2022/10/30 02:06:28;;;;;;;19.48;8.63;;;13.50;99.90;;;;;;5090769;28;20051;-67
2022/10/30 02:08:55;;;;;;;13.00;8.25;;;13.40;99.90;;;;;;5091954;28;20123;-67
2022/10/30 02:11:23;;;;;;;15.15;8.68;;;13.40;99.90;;;;;;5109143;28;20043;-66
2022/10/30 02:13:51;;;;;;;18.90;8.90;;;13.40;99.90;;;;;;5109154;28;20377;-66
2022/10/30 02:16:17;;;;;;;17.60;8.38;;;13.30;99.90;;;;;;5108876;28;20051;-66
2022/10/30 02:18:42;;;;;;;17.08;9.27;;;13.30;99.90;;;;;;5103516;28;20043;-67
2022/10/30 02:21:08;;;;;;;14.95;8.57;;;13.30;99.90;;;;;;5108130;28;20042;-67
2022/10/30 02:23:34;;;;;;;14.32;8.98;;;13.30;99.90;;;;;;5091853;28;20046;-67
2022/10/30 02:26:00;;;;;;;15.43;8.77;;;13.30;99.90;;;;;;5108790;28;20131;-66
2022/10/30 02:28:25;;;;;;;17.02;8.00;;;13.20;99.90;;;;;;5108704;28;20119;-66
2022/10/30 02:30:51;;;;;;;14.30;8.50;;;13.20;99.90;;;;;;5110637;28;20457;-66
2022/10/30 02:33:17;;;;;;;15.52;8.75;;;13.20;99.90;;;;;;5109272;28;20044;-66
2022/10/30 02:35:42;;;;;;;15.02;8.25;;;13.10;99.90;;;;;;5109579;28;20448;-66
2022/10/30 02:38:08;;;;;;;21.17;9.38;;;13.10;99.90;;;;;;5108789;28;20047;-66
2022/10/30 02:40:34;;;;;;;14.48;8.13;;;13.10;99.90;;;;;;5109357;28;20067;-67
2022/10/30 02:42:59;;;;;;;17.10;8.15;;;13.10;99.90;;;;;;5091558;28;20402;-66
2022/10/30 02:45:25;;;;;;;18.58;8.77;;;13.10;99.90;;;;;;5108810;28;20050;-66
2022/10/30 02:47:50;;;;;;;11.95;7.40;;;13.00;99.90;;;;;;5109489;28;20047;-67
2022/10/30 02:50:16;;;;;;;13.77;7.75;;;13.00;99.90;;;;;;5108706;28;20031;-67
2022/10/30 02:52:42;;;;;;;15.55;8.13;;;13.00;99.90;;;;;;5109274;28;20496;-67
2022/10/30 02:55:08;;;;;;;17.98;9.18;;;13.00;99.90;;;;;;5109008;28;20084;-67
2022/10/30 02:57:34;;;;;;;22.05;8.52;;;13.00;99.90;;;;;;5111386;28;20126;-67
2022/10/30 03:00:00;;;;;;;15.93;8.43;;;13.00;99.90;;;;;;5112857;28;20157;-67
2022/10/30 03:02:25;;;;;;;15.85;8.23;;;12.90;99.90;;;;;;5112786;28;20063;-68
2022/10/30 03:04:51;;;;;;;20.23;9.25;;;12.90;99.90;;;;;;5112900;28;20132;-66
2022/10/30 03:07:17;;;;;;;20.25;9.48;;;12.90;99.90;;;;;;5112685;28;20054;-67
2022/10/30 03:09:42;;;;;;;17.95;9.10;;;12.90;99.90;;;;;;5112944;28;20036;-67
2022/10/30 03:12:08;;;;;;;17.70;9.50;;;12.90;99.90;;;;;;5093855;28;20500;-67
2022/10/30 03:14:34;;;;;;;19.40;8.90;;;12.90;99.90;;;;;;5113026;28;20062;-67
2022/10/30 03:16:59;;;;;;;16.98;9.05;;;12.90;99.90;;;;;;5112793;28;20043;-66
2022/10/30 03:19:25;;;;;;;16.40;9.27;;;12.90;99.90;;;;;;5112759;28;20494;-67
2022/10/30 03:21:52;;;;;;;16.10;8.95;;;12.90;99.90;;;;;;5112731;28;20043;-66
2022/10/30 03:24:18;;;;;;;16.85;8.40;;;12.90;99.90;;;;;;5113514;28;20043;-67
2022/10/30 03:26:43;;;;;;;15.80;8.68;;;12.90;99.90;;;;;;5112644;28;20040;-67
2022/10/30 03:29:09;;;;;;;19.30;8.65;;;12.90;99.90;;;;;;5112378;28;20039;-67
2022/10/30 03:31:35;;;;;;;15.18;7.80;;;12.90;99.90;;;;;;5111902;28;20035;-68
2022/10/30 03:34:00;;;;;;;16.17;8.27;;;12.90;99.90;;;;;;5112707;28;20035;-66
2022/10/30 03:36:26;;;;;;;14.68;7.95;;;12.80;99.90;;;;;;5112206;28;20126;-67
2022/10/30 03:38:52;;;;;;;15.18;8.70;;;12.80;99.90;;;;;;5112362;28;20047;-67
2022/10/30 03:41:17;;;;;;;14.77;8.50;;;12.80;99.90;;;;;;5112266;28;20039;-67
2022/10/30 03:43:44;;;;;;;19.25;9.18;;;12.90;99.90;;;;;;5112061;28;20502;-66
2022/10/30 03:46:10;;;;;;;15.45;7.95;;;12.90;99.90;;;;;;5111488;28;20143;-67
2022/10/30 03:48:36;;;;;;;15.98;7.70;;;12.80;99.90;;;;;;5106397;28;20039;-66
2022/10/30 03:51:02;;;;;;;16.15;7.90;;;12.80;99.90;;;;;;5112177;28;20038;-66
2022/10/30 03:53:28;;;;;;;15.95;8.38;;;12.80;99.90;;;;;;5109968;28;20046;-67
2022/10/30 03:55:59;;;;;;;14.32;7.82;;;12.70;99.90;;;;;;5111789;28;20030;-67
2022/10/30 03:58:26;;;;;;;14.25;8.32;;;12.70;99.90;;;;;;5111356;28;20044;-66
2022/10/30 04:00:51;;;;;;;20.48;8.25;;;12.70;99.90;;;;;;5111657;28;20031;-67
2022/10/30 04:03:17;;;;;;;14.75;8.25;;;12.60;99.90;;;;;;5109747;28;20062;-67
2022/10/30 04:05:42;;;;;;;17.90;8.48;;;12.60;99.90;;;;;;5110367;28;20122;-67
2022/10/30 04:08:11;;;;;;;13.98;7.30;;;12.60;99.90;;;;;;5110841;28;20402;-67
2022/10/30 04:10:41;;;;;;;19.30;7.97;;;12.60;99.90;;;;;;5112409;28;20409;-67
2022/10/30 04:13:09;;;;;;;16.38;7.97;;;12.50;99.90;;;;;;5111303;28;20456;-66
2022/10/30 04:15:35;;;;;;;19.25;8.23;;;12.50;99.90;;;;;;5105263;28;20143;-67
2022/10/30 04:18:01;;;;;;;20.95;8.18;;;12.40;99.90;;;;;;5111177;28;20036;-67
2022/10/30 04:20:27;;;;;;;14.77;8.38;;;12.40;99.90;;;;;;5111521;28;20443;-66
2022/10/30 04:22:57;;;;;;;11.80;8.43;;;12.30;99.90;;;;;;5111499;28;20048;-67
2022/10/30 04:25:23;;;;;;;15.75;8.25;;;12.30;99.90;;;;;;5110991;28;20501;-67
2022/10/30 04:27:51;;;;;;;14.68;8.10;;;12.30;99.90;;;;;;5111250;28;20035;-66
2022/10/30 04:30:20;;;;;;;16.05;8.45;;;12.20;99.90;;;;;;5111544;28;20044;-66
2022/10/30 04:32:50;;;;;;;15.68;8.43;;;12.20;99.90;;;;;;5110923;28;20086;-66
2022/10/30 04:35:18;;;;;;;15.13;7.53;;;12.20;99.90;;;;;;5111002;28;20126;-67
2022/10/30 04:37:55;;;;;;;13.05;7.72;;;12.20;99.90;;;;;;5111066;28;20051;-67
2022/10/30 04:40:22;;;;;;;17.75;7.43;;;12.20;99.90;;;;;;5111537;28;20490;-67
2022/10/30 04:42:48;;;;;;;16.35;7.32;;;12.20;99.90;;;;;;5111080;28;20456;-66
2022/10/30 04:45:13;;;;;;;15.07;8.20;;;12.20;99.90;;;;;;5111024;28;20040;-66
2022/10/30 04:47:39;;;;;;;11.40;7.40;;;12.20;99.90;;;;;;5110674;28;20137;-66
2022/10/30 04:50:05;;;;;;;13.45;7.65;;;12.20;99.90;;;;;;5111357;28;20115;-68
2022/10/30 04:52:31;;;;;;;13.40;8.45;;;12.20;99.90;;;;;;5110713;28;20087;-67
2022/10/30 04:54:56;;;;;;;14.45;9.35;;;12.10;99.90;;;;;;5112016;28;20035;-67
2022/10/30 04:57:22;;;;;;;17.33;8.13;;;12.10;99.90;;;;;;5110637;28;20118;-67
2022/10/30 04:59:48;;;;;;;18.65;8.55;;;12.10;99.90;;;;;;5111797;28;20043;-67
2022/10/30 05:02:13;;;;;;;13.23;7.82;;;12.20;99.90;;;;;;5111042;28;20429;-66
2022/10/30 05:04:39;;;;;;;14.57;8.68;;;12.20;99.90;;;;;;5110598;28;20039;-67
2022/10/30 05:07:05;;;;;;;18.52;7.93;;;12.20;99.90;;;;;;5110065;28;20052;-66
2022/10/30 05:09:32;;;;;;;14.38;7.57;;;12.20;99.90;;;;;;5110597;28;20138;-68
2022/10/30 05:11:57;;;;;;;15.10;8.15;;;12.20;99.90;;;;;;5110452;28;20039;-67
2022/10/30 05:14:23;;;;;;;15.98;8.55;;;12.10;99.90;;;;;;5093330;28;20086;-67
2022/10/30 05:16:49;;;;;;;22.35;8.80;;;12.10;99.90;;;;;;5110231;28;20485;-67
2022/10/30 05:19:14;;;;;;;16.60;9.68;;;12.10;99.90;;;;;;5110061;28;20074;-66
2022/10/30 05:21:40;;;;;;;17.38;9.05;;;12.10;99.90;;;;;;5109189;28;20044;-67
2022/10/30 05:24:06;;;;;;;17.55;9.32;;;12.10;99.90;;;;;;5110063;28;20038;-66
2022/10/30 05:26:31;;;;;;;16.33;9.60;;;12.10;99.90;;;;;;5110428;28;20097;-67
2022/10/30 05:28:57;;;;;;;22.30;9.95;;;12.20;99.90;;;;;;5109652;28;20035;-67
2022/10/30 05:31:23;;;;;;;18.95;9.00;;;12.20;99.90;;;;;;5110536;28;20406;-66
2022/10/30 05:33:48;;;;;;;22.20;9.63;;;12.20;99.90;;;;;;5109989;28;20122;-66
2022/10/30 05:36:14;;;;;;;15.98;9.18;;;12.20;99.90;;;;;;5110258;28;20039;-67
2022/10/30 05:38:39;;;;;;;20.10;8.82;;;12.10;99.90;;;;;;5103830;28;20035;-67
2022/10/30 05:41:05;;;;;;;19.90;10.10;;;12.20;99.90;;;;;;5087814;28;20513;-66
2022/10/30 05:43:31;;;;;;;15.68;9.15;;;12.20;99.90;;;;;;5104413;28;20075;-66
2022/10/30 05:45:56;;;;;;;20.05;10.05;;;12.20;99.90;;;;;;5107878;28;20028;-66
2022/10/30 05:48:22;;;;;;;18.90;9.90;;;12.20;99.90;;;;;;5109526;28;20541;-66
2022/10/30 05:50:47;;;;;;;14.43;9.55;;;12.10;99.90;;;;;;5107358;28;20039;-67
2022/10/30 05:53:13;;;;;;;20.95;10.15;;;12.20;99.90;;;;;;5109249;28;20032;-66
2022/10/30 05:55:39;;;;;;;18.08;10.02;;;12.20;99.90;;;;;;5109251;28;20137;-67
2022/10/30 05:58:06;;;;;;;16.45;9.77;;;12.20;99.90;;;;;;5109534;28;20430;-66
2022/10/30 06:00:34;;;;;;;19.33;9.70;;;12.20;99.90;;;;;;5108484;28;20130;-66
2022/10/30 06:03:02;;;;;;;19.95;9.10;;;12.20;99.90;;;;;;5107337;28;20393;-68
2022/10/30 06:05:32;;;;;;;18.27;9.90;;;12.20;99.90;;;;;;5112306;27;20047;-67
2022/10/30 06:07:58;;;;;;;16.48;9.18;;;12.20;99.90;;;;;;5111859;28;20092;-68
2022/10/30 06:10:25;;;;;;;18.85;9.18;;;12.20;99.90;;;;;;5112551;27;20035;-67
2022/10/30 06:12:54;;;;;;;15.65;9.43;;;12.20;99.90;;;;;;5112685;27;20043;-67
2022/10/30 06:15:20;;;;;;;18.23;9.70;;;12.20;99.90;;;;;;5112817;28;20142;-68
2022/10/30 06:17:46;;;;;;;17.95;8.68;;;12.10;99.90;;;;;;5113066;28;20096;-67
2022/10/30 06:20:12;;;;;;;17.15;8.52;;;12.10;99.90;;;;;;5112568;28;20035;-66
2022/10/30 06:22:37;;;;;;;15.85;8.57;;;12.10;99.90;;;;;;5095744;28;20442;-67
2022/10/30 06:25:03;;;;;;;16.50;9.00;;;12.10;99.90;;;;;;5111847;28;20078;-68
2022/10/30 06:27:29;;;;;;;16.52;8.98;;;12.00;99.90;;;;;;5112931;28;20122;-67
2022/10/30 06:29:55;;;;;;;17.88;9.88;;;12.00;99.90;;;;;;5112963;28;20035;-67
2022/10/30 06:32:21;;;;;;;18.33;8.85;;;12.00;99.90;;;;;;5115134;27;20039;-67
2022/10/30 06:34:46;;;;;;;19.30;9.73;;;12.00;99.90;;;;;;5116580;27;20049;-68
2022/10/30 06:37:12;;;;;;;19.90;9.00;;;11.90;99.90;;;;;;5116840;27;20447;-67
2022/10/30 06:39:38;;;;;;;18.33;10.00;;;11.90;99.90;;;;;;5114342;27;20035;-67
2022/10/30 06:42:04;;;;;;;19.50;9.63;;;11.90;99.90;;;;;;5113718;27;20466;-67
2022/10/30 06:44:29;;;;;;;18.17;9.85;;;11.90;99.90;;;;;;5115024;27;20051;-67
2022/10/30 06:46:55;;;;;;;20.58;10.23;;;11.90;99.90;;;;;;5115424;27;20457;-67
2022/10/30 06:49:21;;;;;;;19.02;10.43;;;11.90;99.90;;;;;;5114981;27;20041;-68
2022/10/30 06:51:47;;;;;;;20.52;10.52;;;11.90;99.90;;;;;;5114613;27;20039;-66
2022/10/30 06:54:13;;;;;;;27.52;11.77;;;12.00;99.90;;;;;;5097542;27;20100;-67
2022/10/30 06:56:39;;;;;;;20.23;11.27;;;12.00;99.90;;;;;;5115459;27;20051;-68
2022/10/30 06:59:04;;;;;;;20.83;10.32;;;12.10;99.90;;;;;;5115890;27;20401;-67
2022/10/30 07:01:30;;;;;;;18.70;10.90;;;12.10;99.90;;;;;;5116328;27;20438;-67
2022/10/30 07:03:55;;;;;;;19.60;11.00;;;12.10;99.90;;;;;;5116453;27;20027;-66
2022/10/30 07:06:21;;;;;;;21.77;11.07;;;12.20;99.90;;;;;;5115664;27;20168;-67
2022/10/30 07:08:47;;;;;;;22.95;11.38;;;12.20;99.90;;;;;;5112620;27;20069;-67
2022/10/30 07:11:12;;;;;;;23.85;11.48;;;12.20;99.90;;;;;;5116468;27;20035;-67
2022/10/30 07:13:38;;;;;;;22.52;10.73;;;12.30;99.90;;;;;;5098997;27;20051;-67
2022/10/30 07:16:04;;;;;;;24.55;11.48;;;12.30;99.90;;;;;;5116217;27;20029;-68
2022/10/30 07:18:29;;;;;;;20.48;11.00;;;12.40;99.90;;;;;;5115960;27;20088;-68
2022/10/30 07:20:55;;;;;;;19.92;10.95;;;12.40;99.90;;;;;;5116435;27;20031;-68
2022/10/30 07:23:22;;;;;;;19.30;10.93;;;12.50;99.90;;;;;;5115771;27;20565;-68
2022/10/30 07:25:47;;;;;;;22.55;12.50;;;12.50;99.90;;;;;;5115820;27;20061;-68
2022/10/30 07:28:13;;;;;;;17.58;10.73;;;12.60;99.90;;;;;;5114803;27;20075;-67
2022/10/30 07:30:39;;;;;;;21.50;10.77;;;12.60;99.90;;;;;;5111725;27;20035;-69
2022/10/30 07:33:06;;;;;;;16.67;10.45;;;12.60;99.90;;;;;;5115647;27;20115;-68
2022/10/30 07:35:42;;;;;;;19.52;10.30;;;12.70;99.90;;;;;;5113008;27;20062;-70
2022/10/30 07:38:10;;;;;;;23.02;11.55;;;12.80;99.90;;;;;;5115847;27;20051;-68
2022/10/30 07:40:36;;;;;;;19.05;11.05;;;12.80;99.90;;;;;;5115200;27;20170;-67
2022/10/30 07:43:03;;;;;;;19.50;10.50;;;12.80;99.90;;;;;;5114715;28;20122;-67
2022/10/30 07:45:29;;;;;;;16.75;10.18;;;12.90;99.90;;;;;;5111884;27;20047;-68
2022/10/30 07:47:55;;;;;;;21.50;10.38;;;13.00;99.90;;;;;;5114581;27;20170;-67
2022/10/30 07:50:21;;;;;;;20.30;11.27;;;13.00;99.90;;;;;;5115412;27;20035;-68
2022/10/30 07:52:47;;;;;;;19.63;10.60;;;13.00;99.90;;;;;;5115142;27;20060;-67
2022/10/30 07:55:13;;;;;;;20.27;10.48;;;13.10;99.90;;;;;;5114626;27;20031;-68
2022/10/30 07:57:41;;;;;;;18.27;10.55;;;13.10;99.90;;;;;;5130699;27;20042;-67
2022/10/30 08:00:09;;;;;;;18.00;10.82;;;13.20;99.90;;;;;;5114910;27;20051;-67
2022/10/30 08:02:35;;;;;;;21.13;12.00;;;13.20;99.90;;;;;;5115105;27;20047;-67
2022/10/30 08:05:01;;;;;;;18.00;11.55;;;13.30;99.90;;;;;;5115365;27;20109;-68
2022/10/30 08:07:31;;;;;;;18.08;10.88;;;13.40;99.90;;;;;;5114631;27;20192;-67
2022/10/30 08:09:57;;;;;;;19.90;11.75;;;13.50;99.90;;;;;;5115064;27;20080;-67
2022/10/30 08:12:24;;;;;;;21.90;10.98;;;13.50;99.90;;;;;;5115148;27;20031;-68
2022/10/30 08:14:51;;;;;;;21.85;11.35;;;13.60;99.90;;;;;;5114743;27;20035;-68
2022/10/30 08:17:16;;;;;;;18.40;11.25;;;13.70;99.90;;;;;;5114773;27;20189;-68
2022/10/30 08:19:42;;;;;;;20.58;11.80;;;13.80;99.90;;;;;;5114655;27;20556;-67
2022/10/30 08:22:09;;;;;;;23.63;12.35;;;13.80;99.90;;;;;;5133407;27;20031;-67
2022/10/30 08:24:35;;;;;;;20.48;11.18;;;13.90;99.90;;;;;;5114771;27;20050;-67
2022/10/30 08:27:01;;;;;;;24.85;11.88;;;13.90;99.90;;;;;;5097933;27;20451;-67
2022/10/30 08:29:26;;;;;;;18.92;11.38;;;14.00;99.90;;;;;;5114551;27;20039;-68
2022/10/30 08:31:52;;;;;;;24.98;12.20;;;14.10;99.90;;;;;;5114706;27;20054;-67
2022/10/30 08:34:18;;;;;;;18.83;11.82;;;14.20;99.90;;;;;;5114728;27;20039;-68
2022/10/30 08:36:43;;;;;;;18.02;11.18;;;14.30;99.90;;;;;;5114447;27;20039;-67
2022/10/30 08:39:09;;;;;;;22.58;11.05;;;14.40;99.90;;;;;;5114406;27;20071;-68
2022/10/30 08:41:35;;;;;;;21.13;11.85;;;14.50;99.90;;;;;;5133300;27;20458;-67
2022/10/30 08:44:00;;;;;;;21.38;11.05;;;14.60;99.90;;;;;;5096863;27;20043;-68
2022/10/30 08:46:26;;;;;;;25.65;11.45;;;14.70;99.90;;;;;;5114560;27;20043;-67
2022/10/30 08:48:53;;;;;;;19.70;11.13;;;14.80;99.90;;;;;;5113819;27;20119;-67
2022/10/30 08:51:19;;;;;;;17.02;10.95;;;15.00;99.90;;;;;;5114190;27;20820;-68
2022/10/30 08:53:47;;;;;;;23.80;11.63;;;15.10;99.90;;;;;;5113872;27;20126;-69
2022/10/30 08:56:13;;;;;;;21.67;11.70;;;15.30;99.90;;;;;;5096217;27;20501;-67
2022/10/30 08:58:38;;;;;;;21.55;10.95;;;15.40;99.90;;;;;;5114128;27;20082;-69
2022/10/30 09:01:04;;;;;;;18.75;11.55;;;15.60;99.90;;;;;;5113877;27;20031;-68
2022/10/30 09:03:30;;;;;;;18.52;10.80;;;15.70;99.90;;;;;;5114119;27;20031;-67
2022/10/30 09:05:58;;;;;;;20.15;10.57;;;15.90;99.90;;;;;;5113961;27;20087;-68
2022/10/30 09:08:24;;;;;;;18.83;10.57;;;16.10;99.90;;;;;;5114209;27;20470;-67
2022/10/30 09:10:54;;;;;;;15.68;10.70;;;16.20;99.90;;;;;;5096802;27;20089;-67
2022/10/30 09:13:20;;;;;;;15.05;10.18;;;16.40;99.90;;;;;;5097103;27;20051;-67
2022/10/30 09:15:46;;;;;;;21.15;10.48;;;16.60;99.90;;;;;;5114091;27;20035;-68
2022/10/30 09:18:11;;;;;;;18.27;10.98;;;16.80;99.90;;;;;;5113539;27;20035;-68
2022/10/30 09:20:37;;;;;;;23.90;11.00;;;17.00;99.90;;;;;;5107207;27;20050;-69
2022/10/30 09:23:03;;;;;;;18.55;11.63;;;17.10;99.90;;;;;;5094149;27;20114;-68
2022/10/30 09:25:29;;;;;;;16.38;10.75;;;17.20;99.90;;;;;;5113076;27;20512;-70
2022/10/30 09:27:54;;;;;;;27.63;11.23;;;17.40;99.90;;;;;;5113088;27;20039;-68
2022/10/30 09:30:20;;;;;;;22.88;11.18;;;17.60;99.90;;;;;;5113173;27;20035;-69
2022/10/30 09:32:57;;;;;;;19.17;11.10;;;17.80;99.90;;;;;;5111978;27;20549;-68
2022/10/30 09:35:23;;;;;;;20.00;11.05;;;18.00;99.90;;;;;;5113330;27;20508;-68
2022/10/30 09:37:49;;;;;;;17.90;10.57;;;18.10;99.90;;;;;;5110575;27;20450;-68
2022/10/30 09:40:36;;;;;;;19.20;10.60;;;18.20;99.90;;;;;;5095118;27;20161;-68
2022/10/30 09:43:33;;;;;;;15.93;10.45;;;18.40;99.90;;;;;;5111012;27;20039;-68
2022/10/30 09:45:58;;;;;;;16.55;9.57;;;18.60;99.90;;;;;;5112771;27;20091;-68
2022/10/30 09:48:46;;;;;;;19.35;9.40;;;18.90;99.90;;;;;;5095859;27;20027;-68
2022/10/30 09:51:11;;;;;;;19.88;11.15;;;19.10;99.90;;;;;;5112439;27;20133;-68
2022/10/30 09:53:44;;;;;;;14.18;10.05;;;19.30;99.90;;;;;;5111506;27;20490;-68
2022/10/30 09:56:36;;;;;;;18.33;9.88;;;19.50;99.90;;;;;;5113123;27;20027;-69
2022/10/30 09:59:17;;;;;;;20.65;10.43;;;19.60;99.90;;;;;;5112849;27;20456;-68
2022/10/30 10:02:23;;;;;;;20.48;10.35;;;19.90;99.90;;;;;;5113030;27;20117;-68
2022/10/30 10:04:55;;;;;;;16.52;9.02;;;20.00;99.90;;;;;;5093108;27;20516;-68
2022/10/30 10:07:34;;;;;;;18.60;9.98;;;20.20;99.90;;;;;;5111180;27;20464;-70
2022/10/30 10:10:04;;;;;;;17.40;9.15;;;20.30;99.90;;;;;;5094522;27;20452;-68
2022/10/30 10:12:44;;;;;;;18.73;9.00;;;20.60;99.90;;;;;;5112119;27;20042;-67
2022/10/30 10:15:18;;;;;;;17.58;9.50;;;20.90;99.90;;;;;;5131352;27;20039;-68
2022/10/30 10:17:45;;;;;;;16.75;9.30;;;21.00;99.90;;;;;;5112866;27;20144;-68
2022/10/30 10:20:39;;;;;;;17.65;8.98;;;21.30;99.90;;;;;;5112651;28;20069;-70
2022/10/30 10:23:15;;;;;;;16.50;7.85;;;21.40;99.90;;;;;;5095215;28;20039;-68
2022/10/30 10:25:49;;;;;;;16.48;9.40;;;21.60;99.90;;;;;;5112268;28;20143;-69
2022/10/30 10:28:41;;;;;;;24.40;9.38;;;21.80;99.90;;;;;;5094977;28;20047;-69
2022/10/30 10:31:36;;;;;;;18.90;7.97;;;21.90;99.90;;;;;;5112865;28;20053;-68
2022/10/30 10:34:39;;;;;;;18.00;8.65;;;22.00;99.90;;;;;;5107938;28;20039;-69
2022/10/30 10:37:45;;;;;;;15.93;8.30;;;22.00;99.90;;;;;;5112797;28;20031;-68
2022/10/30 10:40:23;;;;;;;16.40;8.60;;;22.20;99.90;;;;;;5109293;28;20126;-68
2022/10/30 10:42:58;;;;;;;15.55;7.75;;;22.40;99.90;;;;;;5110767;28;20043;-68
2022/10/30 10:45:50;;;;;;;14.30;7.95;;;22.40;99.90;;;;;;5112605;28;20046;-67
2022/10/30 10:48:53;;;;;;;15.07;8.07;;;22.40;99.90;;;;;;5112266;28;20180;-67
2022/10/30 10:51:33;;;;;;;13.88;8.30;;;22.60;99.90;;;;;;5112279;28;20039;-67
2022/10/30 10:54:11;;;;;;;15.18;6.72;;;22.70;99.90;;;;;;5112053;28;20046;-69
2022/10/30 10:56:40;;;;;;;15.65;8.32;;;22.80;99.90;;;;;;5112173;28;20055;-69
2022/10/30 10:59:14;;;;;;;17.75;8.30;;;22.90;99.90;;;;;;5112822;28;20427;-68
2022/10/30 11:01:48;;;;;;;14.35;7.93;;;22.70;99.90;;;;;;5112366;28;20468;-68
2022/10/30 11:04:27;;;;;;;13.13;7.28;;;22.60;99.90;;;;;;5112045;28;20126;-68
2022/10/30 11:06:54;;;;;;;13.38;7.38;;;22.70;99.90;;;;;;5112264;28;20577;-67
2022/10/30 11:09:22;;;;;;;14.68;7.57;;;22.70;99.90;;;;;;5112780;28;20535;-69
2022/10/30 11:11:52;;;;;;;13.38;7.60;;;22.70;99.90;;;;;;5105591;27;20108;-68
2022/10/30 11:14:28;;;;;;;15.52;8.02;;;22.40;99.90;;;;;;5092967;28;20035;-69
2022/10/30 11:17:28;;;;;;;16.00;7.75;;;22.30;99.90;;;;;;5111923;28;20075;-69
2022/10/30 11:19:59;;;;;;;15.15;7.82;;;22.20;99.90;;;;;;5115820;27;20134;-68
2022/10/30 11:22:38;;;;;;;15.32;7.38;;;21.90;99.90;;;;;;5115603;27;20039;-68
2022/10/30 11:25:18;;;;;;;16.33;8.23;;;21.80;99.90;;;;;;5112334;27;20498;-68
2022/10/30 11:27:47;;;;;;;16.05;8.00;;;21.70;99.90;;;;;;5114370;27;20039;-68
2022/10/30 11:30:19;;;;;;;17.98;8.25;;;21.60;99.90;;;;;;5115785;27;20034;-69
2022/10/30 11:32:45;;;;;;;17.50;8.30;;;21.60;99.90;;;;;;5098575;27;20374;-69
2022/10/30 11:35:13;;;;;;;15.23;9.32;;;21.50;99.90;;;;;;5098797;27;20058;-68
2022/10/30 11:37:42;;;;;;;14.55;7.85;;;21.40;99.90;;;;;;5113733;27;20043;-69
2022/10/30 11:40:10;;;;;;;20.35;8.65;;;21.30;99.90;;;;;;5115965;27;20481;-68
2022/10/30 11:42:39;;;;;;;15.25;8.57;;;21.20;99.90;;;;;;5112714;27;20039;-69
2022/10/30 11:45:12;;;;;;;19.02;7.95;;;21.20;99.90;;;;;;5115459;27;20047;-68
2022/10/30 11:47:38;;;;;;;13.70;7.78;;;21.10;99.90;;;;;;5115206;27;20473;-67
2022/10/30 11:50:06;;;;;;;14.57;7.70;;;20.90;99.90;;;;;;5115680;27;20477;-69
2022/10/30 11:52:39;;;;;;;14.40;7.50;;;20.80;99.90;;;;;;5116164;27;20517;-69
2022/10/30 11:55:19;;;;;;;14.43;7.10;;;20.70;99.90;;;;;;5115481;27;20035;-70
2022/10/30 11:57:51;;;;;;;13.27;6.80;;;20.60;99.90;;;;;;5133741;27;20039;-68
2022/10/30 12:00:26;;;;;;;16.77;8.20;;;20.60;99.90;;;;;;5115661;27;20027;-68
2022/10/30 12:02:55;;;;;;;12.10;7.25;;;20.60;99.90;;;;;;5098202;27;20042;-69
2022/10/30 12:05:26;;;;;;;14.45;7.13;;;20.50;99.90;;;;;;5115106;27;20039;-69
2022/10/30 12:08:13;;;;;;;13.63;7.30;;;20.50;99.90;;;;;;5114675;27;20047;-68
2022/10/30 12:10:45;;;;;;;15.73;6.90;;;20.50;99.90;;;;;;5096664;27;20415;-69
2022/10/30 12:13:14;;;;;;;15.30;6.70;;;20.50;99.90;;;;;;5115024;27;20041;-69
2022/10/30 12:15:41;;;;;;;13.25;6.07;;;20.50;99.90;;;;;;5115042;27;20053;-69
2022/10/30 12:18:16;;;;;;;15.43;6.35;;;20.50;99.90;;;;;;5115211;27;20389;-69
2022/10/30 12:20:51;;;;;;;14.85;6.80;;;20.50;99.90;;;;;;5113641;27;20442;-68
2022/10/30 12:23:21;;;;;;;18.30;7.28;;;20.50;99.90;;;;;;5097886;27;20039;-69
2022/10/30 12:25:52;;;;;;;12.75;6.78;;;20.50;99.90;;;;;;5114713;27;20054;-67
2022/10/30 12:28:27;;;;;;;13.10;6.95;;;20.40;99.90;;;;;;5114931;27;20045;-69
2022/10/30 12:31:13;;;;;;;14.52;6.85;;;20.40;99.90;;;;;;5112471;27;20546;-68
2022/10/30 12:33:54;;;;;;;17.70;7.68;;;20.40;99.90;;;;;;5114347;27;20042;-69
2022/10/30 12:36:25;;;;;;;15.07;6.78;;;20.40;99.90;;;;;;5113929;27;20039;-70
2022/10/30 12:38:56;;;;;;;10.75;6.25;;;20.40;99.90;;;;;;5113932;27;20061;-68
2022/10/30 12:41:32;;;;;;;12.43;6.43;;;20.40;99.90;;;;;;5113966;27;20043;-69
2022/10/30 12:44:01;;;;;;;13.95;7.00;;;20.40;99.90;;;;;;5113594;27;20297;-69